sensor_id;sensor_type;location;lat;lon;timestamp;temperature;humidity
35497;DHT22;21609;49.298;6.844;2022-09-21T00:00:33;19.20;58.30
35497;DHT22;21609;49.298;6.844;2022-09-21T00:02:59;19.20;58.30
35497;DHT22;21609;49.298;6.844;2022-09-21T00:05:24;19.20;58.30
35497;DHT22;21609;49.298;6.844;2022-09-21T00:07:50;19.20;58.30
35497;DHT22;21609;49.298;6.844;2022-09-21T00:10:18;19.20;58.30
35497;DHT22;21609;49.298;6.844;2022-09-21T00:12:45;19.20;58.30
35497;DHT22;21609;49.298;6.844;2022-09-21T00:15:13;19.10;58.20
35497;DHT22;21609;49.298;6.844;2022-09-21T00:17:40;19.20;58.30
35497;DHT22;21609;49.298;6.844;2022-09-21T00:20:06;19.20;58.80
35497;DHT22;21609;49.298;6.844;2022-09-21T00:22:32;19.10;58.20
35497;DHT22;21609;49.298;6.844;2022-09-21T00:24:58;19.20;58.20
35497;DHT22;21609;49.298;6.844;2022-09-21T00:27:27;19.10;58.20
35497;DHT22;21609;49.298;6.844;2022-09-21T00:29:58;19.10;58.20
35497;DHT22;21609;49.298;6.844;2022-09-21T00:32:25;19.10;58.20
35497;DHT22;21609;49.298;6.844;2022-09-21T00:34:51;19.10;58.20
35497;DHT22;21609;49.298;6.844;2022-09-21T00:37:20;19.10;58.20
35497;DHT22;21609;49.298;6.844;2022-09-21T00:39:45;19.10;58.20
35497;DHT22;21609;49.298;6.844;2022-09-21T00:44:46;19.10;58.20
35497;DHT22;21609;49.298;6.844;2022-09-21T00:47:15;19.10;58.20
35497;DHT22;21609;49.298;6.844;2022-09-21T00:49:46;19.10;58.20
35497;DHT22;21609;49.298;6.844;2022-09-21T00:52:16;19.10;58.20
35497;DHT22;21609;49.298;6.844;2022-09-21T00:54:48;19.10;58.10
35497;DHT22;21609;49.298;6.844;2022-09-21T00:57:15;19.10;58.20
35497;DHT22;21609;49.298;6.844;2022-09-21T00:59:44;19.10;58.20
35497;DHT22;21609;49.298;6.844;2022-09-21T01:02:10;19.10;58.20
35497;DHT22;21609;49.298;6.844;2022-09-21T01:04:37;19.10;58.20
35497;DHT22;21609;49.298;6.844;2022-09-21T01:07:05;19.10;58.10
35497;DHT22;21609;49.298;6.844;2022-09-21T01:09:33;19.10;58.10
35497;DHT22;21609;49.298;6.844;2022-09-21T01:14:50;19.10;58.10
35497;DHT22;21609;49.298;6.844;2022-09-21T01:23:15;19.10;58.70
35497;DHT22;21609;49.298;6.844;2022-09-21T01:31:08;19.00;58.10
35497;DHT22;21609;49.298;6.844;2022-09-21T01:33:40;19.10;58.10
35497;DHT22;21609;49.298;6.844;2022-09-21T01:36:12;19.00;58.00
35497;DHT22;21609;49.298;6.844;2022-09-21T01:38:47;19.00;58.10
35497;DHT22;21609;49.298;6.844;2022-09-21T01:41:16;19.00;58.00
35497;DHT22;21609;49.298;6.844;2022-09-21T01:43:52;19.00;58.60
35497;DHT22;21609;49.298;6.844;2022-09-21T01:46:20;19.00;58.00
35497;DHT22;21609;49.298;6.844;2022-09-21T01:51:32;19.00;58.10
35497;DHT22;21609;49.298;6.844;2022-09-21T01:54:08;19.00;58.00
35497;DHT22;21609;49.298;6.844;2022-09-21T01:56:39;19.00;58.00
35497;DHT22;21609;49.298;6.844;2022-09-21T01:59:18;19.00;58.00
35497;DHT22;21609;49.298;6.844;2022-09-21T02:01:55;19.00;58.00
35497;DHT22;21609;49.298;6.844;2022-09-21T02:04:22;19.00;58.00
35497;DHT22;21609;49.298;6.844;2022-09-21T02:06:49;19.00;58.00
35497;DHT22;21609;49.298;6.844;2022-09-21T02:09:16;19.00;58.00
35497;DHT22;21609;49.298;6.844;2022-09-21T02:11:42;19.00;58.00
35497;DHT22;21609;49.298;6.844;2022-09-21T02:14:13;19.00;58.00
35497;DHT22;21609;49.298;6.844;2022-09-21T02:19:44;19.00;58.00
35497;DHT22;21609;49.298;6.844;2022-09-21T02:22:17;19.00;58.00
35497;DHT22;21609;49.298;6.844;2022-09-21T02:24:49;19.00;57.90
35497;DHT22;21609;49.298;6.844;2022-09-21T02:27:30;19.00;58.00
35497;DHT22;21609;49.298;6.844;2022-09-21T02:30:13;19.00;57.90
35497;DHT22;21609;49.298;6.844;2022-09-21T02:33:36;18.90;57.90
35497;DHT22;21609;49.298;6.844;2022-09-21T02:43:58;18.90;57.90
35497;DHT22;21609;49.298;6.844;2022-09-21T02:47:15;19.00;57.90
35497;DHT22;21609;49.298;6.844;2022-09-21T02:49:27;18.90;57.90
35497;DHT22;21609;49.298;6.844;2022-09-21T02:51:58;18.90;57.90
35497;DHT22;21609;49.298;6.844;2022-09-21T02:54:29;18.90;57.90
35497;DHT22;21609;49.298;6.844;2022-09-21T02:56:56;18.90;57.90
35497;DHT22;21609;49.298;6.844;2022-09-21T02:59:22;18.90;57.90
35497;DHT22;21609;49.298;6.844;2022-09-21T03:01:49;18.90;57.90
35497;DHT22;21609;49.298;6.844;2022-09-21T03:04:15;18.90;57.90
35497;DHT22;21609;49.298;6.844;2022-09-21T03:06:41;18.90;57.90
35497;DHT22;21609;49.298;6.844;2022-09-21T03:09:07;18.90;57.80
35497;DHT22;21609;49.298;6.844;2022-09-21T03:11:34;18.90;57.80
35497;DHT22;21609;49.298;6.844;2022-09-21T03:14:01;18.90;57.80
35497;DHT22;21609;49.298;6.844;2022-09-21T03:16:29;18.90;57.80
35497;DHT22;21609;49.298;6.844;2022-09-21T03:18:55;18.90;57.80
35497;DHT22;21609;49.298;6.844;2022-09-21T03:21:21;18.80;57.80
35497;DHT22;21609;49.298;6.844;2022-09-21T03:23:47;18.90;57.80
35497;DHT22;21609;49.298;6.844;2022-09-21T03:26:12;18.80;57.80
35497;DHT22;21609;49.298;6.844;2022-09-21T03:28:38;18.80;57.80
35497;DHT22;21609;49.298;6.844;2022-09-21T03:31:04;18.80;57.70
35497;DHT22;21609;49.298;6.844;2022-09-21T03:33:30;18.80;57.70
35497;DHT22;21609;49.298;6.844;2022-09-21T03:35:56;18.80;57.70
35497;DHT22;21609;49.298;6.844;2022-09-21T03:38:22;18.80;57.70
35497;DHT22;21609;49.298;6.844;2022-09-21T03:40:49;18.80;57.70
35497;DHT22;21609;49.298;6.844;2022-09-21T03:43:16;18.80;57.70
35497;DHT22;21609;49.298;6.844;2022-09-21T03:45:42;18.80;57.70
35497;DHT22;21609;49.298;6.844;2022-09-21T03:48:09;18.80;57.70
35497;DHT22;21609;49.298;6.844;2022-09-21T03:50:35;18.80;57.70
35497;DHT22;21609;49.298;6.844;2022-09-21T03:53:01;18.80;57.70
35497;DHT22;21609;49.298;6.844;2022-09-21T03:55:27;18.80;57.70
35497;DHT22;21609;49.298;6.844;2022-09-21T03:57:54;18.80;57.70
35497;DHT22;21609;49.298;6.844;2022-09-21T04:00:20;18.80;57.70
35497;DHT22;21609;49.298;6.844;2022-09-21T04:02:46;18.80;57.70
35497;DHT22;21609;49.298;6.844;2022-09-21T04:05:14;18.80;57.70
35497;DHT22;21609;49.298;6.844;2022-09-21T04:07:41;18.80;57.70
35497;DHT22;21609;49.298;6.844;2022-09-21T04:10:09;18.80;57.70
35497;DHT22;21609;49.298;6.844;2022-09-21T04:12:37;18.80;57.70
35497;DHT22;21609;49.298;6.844;2022-09-21T04:15:03;18.70;57.60
35497;DHT22;21609;49.298;6.844;2022-09-21T04:17:32;18.70;57.70
35497;DHT22;21609;49.298;6.844;2022-09-21T04:19:58;18.70;57.70
35497;DHT22;21609;49.298;6.844;2022-09-21T04:22:24;18.80;57.70
35497;DHT22;21609;49.298;6.844;2022-09-21T04:24:50;18.70;57.70
35497;DHT22;21609;49.298;6.844;2022-09-21T04:27:16;18.70;57.60
35497;DHT22;21609;49.298;6.844;2022-09-21T04:29:42;18.70;57.70
35497;DHT22;21609;49.298;6.844;2022-09-21T04:32:09;18.70;57.60
35497;DHT22;21609;49.298;6.844;2022-09-21T04:34:35;18.70;57.60
35497;DHT22;21609;49.298;6.844;2022-09-21T04:37:06;18.70;57.60
35497;DHT22;21609;49.298;6.844;2022-09-21T04:39:38;18.70;58.30
35497;DHT22;21609;49.298;6.844;2022-09-21T04:42:04;18.70;57.70
35497;DHT22;21609;49.298;6.844;2022-09-21T04:44:29;18.70;57.60
35497;DHT22;21609;49.298;6.844;2022-09-21T04:46:56;18.70;57.60
35497;DHT22;21609;49.298;6.844;2022-09-21T04:49:22;18.70;57.60
35497;DHT22;21609;49.298;6.844;2022-09-21T04:51:47;18.70;57.70
35497;DHT22;21609;49.298;6.844;2022-09-21T04:54:13;18.70;57.60
35497;DHT22;21609;49.298;6.844;2022-09-21T04:56:39;18.70;57.60
35497;DHT22;21609;49.298;6.844;2022-09-21T04:59:05;18.70;57.60
35497;DHT22;21609;49.298;6.844;2022-09-21T05:01:30;18.70;57.70
35497;DHT22;21609;49.298;6.844;2022-09-21T05:03:56;18.70;57.70
35497;DHT22;21609;49.298;6.844;2022-09-21T05:06:27;18.70;57.70
35497;DHT22;21609;49.298;6.844;2022-09-21T05:08:53;18.70;57.70
35497;DHT22;21609;49.298;6.844;2022-09-21T05:11:37;18.70;57.70
35497;DHT22;21609;49.298;6.844;2022-09-21T05:14:03;18.70;57.70
35497;DHT22;21609;49.298;6.844;2022-09-21T05:16:29;18.70;57.70
35497;DHT22;21609;49.298;6.844;2022-09-21T05:18:54;18.60;57.60
35497;DHT22;21609;49.298;6.844;2022-09-21T05:21:20;18.60;57.60
35497;DHT22;21609;49.298;6.844;2022-09-21T05:23:46;18.70;57.60
35497;DHT22;21609;49.298;6.844;2022-09-21T05:26:12;18.70;57.70
35497;DHT22;21609;49.298;6.844;2022-09-21T05:28:37;18.60;57.60
35497;DHT22;21609;49.298;6.844;2022-09-21T05:31:09;18.60;58.20
35497;DHT22;21609;49.298;6.844;2022-09-21T05:33:39;18.60;57.60
35497;DHT22;21609;49.298;6.844;2022-09-21T05:36:24;18.60;57.60
35497;DHT22;21609;49.298;6.844;2022-09-21T05:38:53;18.60;57.60
35497;DHT22;21609;49.298;6.844;2022-09-21T05:41:21;18.60;57.60
35497;DHT22;21609;49.298;6.844;2022-09-21T05:43:47;18.60;57.60
35497;DHT22;21609;49.298;6.844;2022-09-21T05:46:40;18.60;57.60
35497;DHT22;21609;49.298;6.844;2022-09-21T05:49:05;18.60;57.60
35497;DHT22;21609;49.298;6.844;2022-09-21T05:51:55;18.60;57.60
35497;DHT22;21609;49.298;6.844;2022-09-21T05:57:00;18.60;57.70
35497;DHT22;21609;49.298;6.844;2022-09-21T06:02:12;18.60;57.70
35497;DHT22;21609;49.298;6.844;2022-09-21T06:04:41;18.60;58.30
35497;DHT22;21609;49.298;6.844;2022-09-21T06:07:06;18.60;57.70
35497;DHT22;21609;49.298;6.844;2022-09-21T06:09:32;18.60;57.70
35497;DHT22;21609;49.298;6.844;2022-09-21T06:11:58;18.60;57.60
35497;DHT22;21609;49.298;6.844;2022-09-21T06:14:24;18.60;57.60
35497;DHT22;21609;49.298;6.844;2022-09-21T06:16:51;18.60;57.60
35497;DHT22;21609;49.298;6.844;2022-09-21T06:19:17;18.60;57.70
35497;DHT22;21609;49.298;6.844;2022-09-21T06:21:42;18.60;57.70
35497;DHT22;21609;49.298;6.844;2022-09-21T06:24:08;18.60;57.80
35497;DHT22;21609;49.298;6.844;2022-09-21T06:26:34;18.60;57.90
35497;DHT22;21609;49.298;6.844;2022-09-21T06:28:59;18.70;57.90
35497;DHT22;21609;49.298;6.844;2022-09-21T06:31:26;18.60;57.90
35497;DHT22;21609;49.298;6.844;2022-09-21T06:33:51;18.70;57.90
35497;DHT22;21609;49.298;6.844;2022-09-21T06:36:17;18.70;58.00
35497;DHT22;21609;49.298;6.844;2022-09-21T06:38:42;18.70;58.00
35497;DHT22;21609;49.298;6.844;2022-09-21T06:41:08;18.70;58.00
35497;DHT22;21609;49.298;6.844;2022-09-21T06:43:33;18.70;58.10
35497;DHT22;21609;49.298;6.844;2022-09-21T06:46:00;18.70;58.10
35497;DHT22;21609;49.298;6.844;2022-09-21T06:48:28;18.70;58.20
35497;DHT22;21609;49.298;6.844;2022-09-21T06:50:58;18.70;58.20
35497;DHT22;21609;49.298;6.844;2022-09-21T06:53:24;18.70;58.20
35497;DHT22;21609;49.298;6.844;2022-09-21T06:55:50;18.70;58.30
35497;DHT22;21609;49.298;6.844;2022-09-21T06:58:16;18.70;58.40
35497;DHT22;21609;49.298;6.844;2022-09-21T07:00:42;18.70;58.40
35497;DHT22;21609;49.298;6.844;2022-09-21T07:03:11;18.70;58.50
35497;DHT22;21609;49.298;6.844;2022-09-21T07:05:38;18.70;58.50
35497;DHT22;21609;49.298;6.844;2022-09-21T07:08:04;18.70;58.60
35497;DHT22;21609;49.298;6.844;2022-09-21T07:10:30;18.70;58.70
35497;DHT22;21609;49.298;6.844;2022-09-21T07:13:02;18.70;58.80
35497;DHT22;21609;49.298;6.844;2022-09-21T07:15:28;18.70;58.90
35497;DHT22;21609;49.298;6.844;2022-09-21T07:17:55;18.70;59.00
35497;DHT22;21609;49.298;6.844;2022-09-21T07:20:20;18.70;59.00
35497;DHT22;21609;49.298;6.844;2022-09-21T07:22:46;18.70;59.10
35497;DHT22;21609;49.298;6.844;2022-09-21T07:25:12;18.70;59.20
35497;DHT22;21609;49.298;6.844;2022-09-21T07:27:37;18.80;59.30
35497;DHT22;21609;49.298;6.844;2022-09-21T07:30:04;18.80;59.40
35497;DHT22;21609;49.298;6.844;2022-09-21T07:32:30;18.80;59.40
35497;DHT22;21609;49.298;6.844;2022-09-21T07:34:56;18.70;59.50
35497;DHT22;21609;49.298;6.844;2022-09-21T07:37:25;18.70;59.50
35497;DHT22;21609;49.298;6.844;2022-09-21T07:39:52;18.70;59.50
35497;DHT22;21609;49.298;6.844;2022-09-21T07:42:18;18.70;59.60
35497;DHT22;21609;49.298;6.844;2022-09-21T07:44:47;18.70;59.70
35497;DHT22;21609;49.298;6.844;2022-09-21T07:47:14;18.70;59.80
35497;DHT22;21609;49.298;6.844;2022-09-21T07:49:40;18.70;59.80
35497;DHT22;21609;49.298;6.844;2022-09-21T07:52:06;18.80;59.90
35497;DHT22;21609;49.298;6.844;2022-09-21T07:54:33;18.80;60.00
35497;DHT22;21609;49.298;6.844;2022-09-21T07:56:59;18.80;60.10
35497;DHT22;21609;49.298;6.844;2022-09-21T07:59:43;18.80;60.10
35497;DHT22;21609;49.298;6.844;2022-09-21T08:02:10;18.80;60.20
35497;DHT22;21609;49.298;6.844;2022-09-21T08:04:35;18.80;60.30
35497;DHT22;21609;49.298;6.844;2022-09-21T08:07:01;18.80;60.30
35497;DHT22;21609;49.298;6.844;2022-09-21T08:09:26;18.80;60.40
35497;DHT22;21609;49.298;6.844;2022-09-21T08:11:52;18.80;60.50
35497;DHT22;21609;49.298;6.844;2022-09-21T08:14:19;18.80;60.50
35497;DHT22;21609;49.298;6.844;2022-09-21T08:16:45;18.80;60.60
35497;DHT22;21609;49.298;6.844;2022-09-21T08:19:12;18.80;60.70
35497;DHT22;21609;49.298;6.844;2022-09-21T08:21:38;18.80;60.80
35497;DHT22;21609;49.298;6.844;2022-09-21T08:24:04;18.80;60.80
35497;DHT22;21609;49.298;6.844;2022-09-21T08:26:29;18.80;60.80
35497;DHT22;21609;49.298;6.844;2022-09-21T08:28:55;18.80;60.90
35497;DHT22;21609;49.298;6.844;2022-09-21T08:31:24;18.80;61.00
35497;DHT22;21609;49.298;6.844;2022-09-21T08:33:51;18.80;61.00
35497;DHT22;21609;49.298;6.844;2022-09-21T08:36:18;18.80;61.10
35497;DHT22;21609;49.298;6.844;2022-09-21T08:38:43;18.80;61.20
35497;DHT22;21609;49.298;6.844;2022-09-21T08:44:03;18.80;61.30
35497;DHT22;21609;49.298;6.844;2022-09-21T08:46:31;18.80;61.30
35497;DHT22;21609;49.298;6.844;2022-09-21T08:49:07;18.80;61.40
35497;DHT22;21609;49.298;6.844;2022-09-21T08:51:37;18.90;61.60
35497;DHT22;21609;49.298;6.844;2022-09-21T08:56:55;18.90;61.90
35497;DHT22;21609;49.298;6.844;2022-09-21T08:59:21;18.90;62.00
35497;DHT22;21609;49.298;6.844;2022-09-21T09:02:00;18.90;62.10
35497;DHT22;21609;49.298;6.844;2022-09-21T09:04:30;19.00;62.30
35497;DHT22;21609;49.298;6.844;2022-09-21T09:09:48;19.00;62.70
35497;DHT22;21609;49.298;6.844;2022-09-21T09:12:46;19.00;62.70
35497;DHT22;21609;49.298;6.844;2022-09-21T09:17:59;19.00;62.90
35497;DHT22;21609;49.298;6.844;2022-09-21T09:20:36;19.00;63.00
35497;DHT22;21609;49.298;6.844;2022-09-21T09:25:51;19.10;63.30
35497;DHT22;21609;49.298;6.844;2022-09-21T09:28:37;19.00;63.20
35497;DHT22;21609;49.298;6.844;2022-09-21T09:31:17;19.10;63.40
35497;DHT22;21609;49.298;6.844;2022-09-21T09:33:52;19.10;63.40
35497;DHT22;21609;49.298;6.844;2022-09-21T09:36:19;19.10;63.50
35497;DHT22;21609;49.298;6.844;2022-09-21T09:38:54;19.10;64.40
35497;DHT22;21609;49.298;6.844;2022-09-21T09:41:28;19.10;63.70
35497;DHT22;21609;49.298;6.844;2022-09-21T09:52:33;19.20;64.20
35497;DHT22;21609;49.298;6.844;2022-09-21T09:54:59;19.20;64.10
35497;DHT22;21609;49.298;6.844;2022-09-21T09:57:30;19.20;64.20
35497;DHT22;21609;49.298;6.844;2022-09-21T10:00:00;19.20;64.20
35497;DHT22;21609;49.298;6.844;2022-09-21T10:02:28;19.20;64.30
35497;DHT22;21609;49.298;6.844;2022-09-21T10:05:02;19.20;64.30
35497;DHT22;21609;49.298;6.844;2022-09-21T10:07:48;19.20;64.50
35497;DHT22;21609;49.298;6.844;2022-09-21T10:11:02;19.30;64.80
35497;DHT22;21609;49.298;6.844;2022-09-21T10:18:34;19.30;64.90
35497;DHT22;21609;49.298;6.844;2022-09-21T10:21:04;19.30;64.90
35497;DHT22;21609;49.298;6.844;2022-09-21T10:23:31;19.30;65.50
35497;DHT22;21609;49.298;6.844;2022-09-21T10:28:23;19.30;64.60
35497;DHT22;21609;49.298;6.844;2022-09-21T10:30:50;19.30;64.60
35497;DHT22;21609;49.298;6.844;2022-09-21T10:33:31;19.30;64.60
35497;DHT22;21609;49.298;6.844;2022-09-21T10:35:57;19.30;64.50
35497;DHT22;21609;49.298;6.844;2022-09-21T10:38:25;19.30;64.60
35497;DHT22;21609;49.298;6.844;2022-09-21T10:40:54;19.30;64.60
35497;DHT22;21609;49.298;6.844;2022-09-21T10:43:35;19.30;64.50
35497;DHT22;21609;49.298;6.844;2022-09-21T10:46:04;19.30;64.50
35497;DHT22;21609;49.298;6.844;2022-09-21T10:48:30;19.40;64.70
35497;DHT22;21609;49.298;6.844;2022-09-21T10:50:56;19.40;64.60
35497;DHT22;21609;49.298;6.844;2022-09-21T10:53:32;19.40;64.60
35497;DHT22;21609;49.298;6.844;2022-09-21T10:56:17;19.40;64.70
35497;DHT22;21609;49.298;6.844;2022-09-21T10:59:18;19.40;64.60
35497;DHT22;21609;49.298;6.844;2022-09-21T11:01:48;19.40;64.60
35497;DHT22;21609;49.298;6.844;2022-09-21T11:06:53;19.40;64.70
35497;DHT22;21609;49.298;6.844;2022-09-21T11:09:23;19.40;64.70
35497;DHT22;21609;49.298;6.844;2022-09-21T11:15:15;19.50;65.00
35497;DHT22;21609;49.298;6.844;2022-09-21T11:17:52;19.50;65.00
35497;DHT22;21609;49.298;6.844;2022-09-21T11:29:14;19.70;64.50
35497;DHT22;21609;49.298;6.844;2022-09-21T11:32:06;19.70;64.20
35497;DHT22;21609;49.298;6.844;2022-09-21T11:46:32;19.80;63.90
35497;DHT22;21609;49.298;6.844;2022-09-21T11:57:42;19.80;64.00
35497;DHT22;21609;49.298;6.844;2022-09-21T12:00:16;19.80;63.80
35497;DHT22;21609;49.298;6.844;2022-09-21T12:03:19;19.90;63.50
35497;DHT22;21609;49.298;6.844;2022-09-21T12:06:01;20.00;62.90
35497;DHT22;21609;49.298;6.844;2022-09-21T12:11:27;20.10;62.40
35497;DHT22;21609;49.298;6.844;2022-09-21T12:14:35;20.20;62.20
35497;DHT22;21609;49.298;6.844;2022-09-21T12:17:15;20.20;61.80
35497;DHT22;21609;49.298;6.844;2022-09-21T12:20:17;20.20;61.60
35497;DHT22;21609;49.298;6.844;2022-09-21T12:22:47;20.20;61.40
35497;DHT22;21609;49.298;6.844;2022-09-21T12:25:22;20.20;61.10
35497;DHT22;21609;49.298;6.844;2022-09-21T12:27:52;20.20;61.00
35497;DHT22;21609;49.298;6.844;2022-09-21T12:30:20;20.20;60.90
35497;DHT22;21609;49.298;6.844;2022-09-21T12:32:57;20.20;60.80
35497;DHT22;21609;49.298;6.844;2022-09-21T12:35:43;20.30;60.90
35497;DHT22;21609;49.298;6.844;2022-09-21T12:38:29;20.30;60.70
35497;DHT22;21609;49.298;6.844;2022-09-21T12:41:00;20.30;60.60
35497;DHT22;21609;49.298;6.844;2022-09-21T12:43:43;20.40;60.40
35497;DHT22;21609;49.298;6.844;2022-09-21T12:46:15;20.40;60.40
35497;DHT22;21609;49.298;6.844;2022-09-21T12:48:42;20.40;60.30
35497;DHT22;21609;49.298;6.844;2022-09-21T12:51:23;20.40;60.20
35497;DHT22;21609;49.298;6.844;2022-09-21T12:53:56;20.50;60.20
35497;DHT22;21609;49.298;6.844;2022-09-21T12:59:25;20.50;59.70
35497;DHT22;21609;49.298;6.844;2022-09-21T13:04:44;20.60;59.60
35497;DHT22;21609;49.298;6.844;2022-09-21T13:10:06;20.60;59.50
35497;DHT22;21609;49.298;6.844;2022-09-21T13:12:38;20.70;59.50
35497;DHT22;21609;49.298;6.844;2022-09-21T13:15:22;20.60;59.40
35497;DHT22;21609;49.298;6.844;2022-09-21T13:18:00;20.60;59.30
35497;DHT22;21609;49.298;6.844;2022-09-21T13:20:27;20.70;59.90
35497;DHT22;21609;49.298;6.844;2022-09-21T13:22:58;20.70;59.20
35497;DHT22;21609;49.298;6.844;2022-09-21T13:25:26;20.70;59.20
35497;DHT22;21609;49.298;6.844;2022-09-21T13:30:48;20.80;59.10
35497;DHT22;21609;49.298;6.844;2022-09-21T13:43:59;21.00;58.90
35497;DHT22;21609;49.298;6.844;2022-09-21T13:49:16;21.10;58.50
35497;DHT22;21609;49.298;6.844;2022-09-21T13:52:06;21.10;58.50
35497;DHT22;21609;49.298;6.844;2022-09-21T13:54:49;21.20;58.40
35497;DHT22;21609;49.298;6.844;2022-09-21T13:59:44;21.20;57.90
35497;DHT22;21609;49.298;6.844;2022-09-21T14:02:30;21.20;58.00
35497;DHT22;21609;49.298;6.844;2022-09-21T14:05:45;21.40;57.90
35497;DHT22;21609;49.298;6.844;2022-09-21T14:07:45;21.40;57.30
35497;DHT22;21609;49.298;6.844;2022-09-21T14:10:20;21.40;57.10
35497;DHT22;21609;49.298;6.844;2022-09-21T14:12:46;21.50;57.20
35497;DHT22;21609;49.298;6.844;2022-09-21T14:17:43;21.50;56.90
35497;DHT22;21609;49.298;6.844;2022-09-21T14:20:29;21.60;57.00
35497;DHT22;21609;49.298;6.844;2022-09-21T14:25:58;21.60;56.40
35497;DHT22;21609;49.298;6.844;2022-09-21T14:28:30;21.60;56.10
35497;DHT22;21609;49.298;6.844;2022-09-21T14:31:02;21.60;57.00
35497;DHT22;21609;49.298;6.844;2022-09-21T14:33:34;21.70;56.50
35497;DHT22;21609;49.298;6.844;2022-09-21T14:36:07;21.70;56.90
35497;DHT22;21609;49.298;6.844;2022-09-21T14:38:42;21.70;56.90
35497;DHT22;21609;49.298;6.844;2022-09-21T14:41:16;21.70;56.60
35497;DHT22;21609;49.298;6.844;2022-09-21T14:43:51;21.70;56.60
35497;DHT22;21609;49.298;6.844;2022-09-21T14:46:42;21.80;55.60
35497;DHT22;21609;49.298;6.844;2022-09-21T14:52:12;21.70;54.80
35497;DHT22;21609;49.298;6.844;2022-09-21T14:57:48;21.70;54.90
35497;DHT22;21609;49.298;6.844;2022-09-21T15:00:21;21.60;54.30
35497;DHT22;21609;49.298;6.844;2022-09-21T15:12:24;21.60;54.50
35497;DHT22;21609;49.298;6.844;2022-09-21T15:17:57;21.50;53.50
35497;DHT22;21609;49.298;6.844;2022-09-21T15:20:26;21.50;54.00
35497;DHT22;21609;49.298;6.844;2022-09-21T15:22:59;21.50;54.30
35497;DHT22;21609;49.298;6.844;2022-09-21T15:25:28;21.50;54.20
35497;DHT22;21609;49.298;6.844;2022-09-21T15:27:55;21.50;54.30
35497;DHT22;21609;49.298;6.844;2022-09-21T15:30:25;21.60;53.90
35497;DHT22;21609;49.298;6.844;2022-09-21T15:33:00;21.60;53.40
35497;DHT22;21609;49.298;6.844;2022-09-21T15:35:28;21.60;53.70
35497;DHT22;21609;49.298;6.844;2022-09-21T15:37:56;21.60;54.10
35497;DHT22;21609;49.298;6.844;2022-09-21T15:40:31;21.60;54.40
35497;DHT22;21609;49.298;6.844;2022-09-21T15:46:15;21.50;54.30
35497;DHT22;21609;49.298;6.844;2022-09-21T15:48:17;21.50;54.20
35497;DHT22;21609;49.298;6.844;2022-09-21T15:50:48;21.50;54.10
35497;DHT22;21609;49.298;6.844;2022-09-21T15:53:22;21.50;54.10
35497;DHT22;21609;49.298;6.844;2022-09-21T15:55:50;21.50;53.80
35497;DHT22;21609;49.298;6.844;2022-09-21T15:58:37;21.40;53.40
35497;DHT22;21609;49.298;6.844;2022-09-21T16:01:14;21.50;53.70
35497;DHT22;21609;49.298;6.844;2022-09-21T16:03:40;21.50;54.00
35497;DHT22;21609;49.298;6.844;2022-09-21T16:08:45;21.40;54.40
35497;DHT22;21609;49.298;6.844;2022-09-21T16:13:47;21.40;54.90
35497;DHT22;21609;49.298;6.844;2022-09-21T16:16:32;21.50;55.00
35497;DHT22;21609;49.298;6.844;2022-09-21T16:18:58;21.40;54.90
35497;DHT22;21609;49.298;6.844;2022-09-21T16:21:28;21.40;55.00
35497;DHT22;21609;49.298;6.844;2022-09-21T16:24:10;21.40;55.00
35497;DHT22;21609;49.298;6.844;2022-09-21T16:26:41;21.50;54.90
35497;DHT22;21609;49.298;6.844;2022-09-21T16:29:21;21.50;54.90
35497;DHT22;21609;49.298;6.844;2022-09-21T16:34:38;21.40;54.60
35497;DHT22;21609;49.298;6.844;2022-09-21T16:39:49;21.40;54.70
35497;DHT22;21609;49.298;6.844;2022-09-21T16:42:15;21.40;55.00
35497;DHT22;21609;49.298;6.844;2022-09-21T16:44:41;21.40;55.00
35497;DHT22;21609;49.298;6.844;2022-09-21T16:47:19;21.40;55.00
35497;DHT22;21609;49.298;6.844;2022-09-21T16:49:50;21.40;54.90
35497;DHT22;21609;49.298;6.844;2022-09-21T16:52:20;21.40;55.00
35497;DHT22;21609;49.298;6.844;2022-09-21T16:54:46;21.40;55.10
35497;DHT22;21609;49.298;6.844;2022-09-21T16:57:13;21.40;55.10
35497;DHT22;21609;49.298;6.844;2022-09-21T16:59:39;21.30;55.10
35497;DHT22;21609;49.298;6.844;2022-09-21T17:02:05;21.30;55.10
35497;DHT22;21609;49.298;6.844;2022-09-21T17:04:32;21.40;55.20
35497;DHT22;21609;49.298;6.844;2022-09-21T17:06:59;21.30;55.10
35497;DHT22;21609;49.298;6.844;2022-09-21T17:09:38;21.40;55.20
35497;DHT22;21609;49.298;6.844;2022-09-21T17:12:07;21.30;55.00
35497;DHT22;21609;49.298;6.844;2022-09-21T17:14:35;21.30;55.20
35497;DHT22;21609;49.298;6.844;2022-09-21T17:17:04;21.30;55.20
35497;DHT22;21609;49.298;6.844;2022-09-21T17:19:33;21.30;55.20
35497;DHT22;21609;49.298;6.844;2022-09-21T17:21:59;21.30;55.20
35497;DHT22;21609;49.298;6.844;2022-09-21T17:24:24;21.30;55.20
35497;DHT22;21609;49.298;6.844;2022-09-21T17:26:53;21.30;55.20
35497;DHT22;21609;49.298;6.844;2022-09-21T17:29:22;21.30;55.40
35497;DHT22;21609;49.298;6.844;2022-09-21T17:31:56;21.30;55.20
35497;DHT22;21609;49.298;6.844;2022-09-21T17:34:26;21.30;55.20
35497;DHT22;21609;49.298;6.844;2022-09-21T17:36:53;21.30;55.20
35497;DHT22;21609;49.298;6.844;2022-09-21T17:39:20;21.30;55.30
35497;DHT22;21609;49.298;6.844;2022-09-21T17:46:57;21.30;55.20
35497;DHT22;21609;49.298;6.844;2022-09-21T17:49:24;21.30;55.20
35497;DHT22;21609;49.298;6.844;2022-09-21T17:51:50;21.20;55.20
35497;DHT22;21609;49.298;6.844;2022-09-21T17:54:35;21.20;55.20
35497;DHT22;21609;49.298;6.844;2022-09-21T17:57:05;21.20;55.20
35497;DHT22;21609;49.298;6.844;2022-09-21T17:59:34;21.20;55.20
35497;DHT22;21609;49.298;6.844;2022-09-21T18:02:16;21.20;55.90
35497;DHT22;21609;49.298;6.844;2022-09-21T18:04:43;21.20;55.20
35497;DHT22;21609;49.298;6.844;2022-09-21T18:07:10;21.20;55.30
35497;DHT22;21609;49.298;6.844;2022-09-21T18:09:36;21.20;55.40
35497;DHT22;21609;49.298;6.844;2022-09-21T18:12:09;21.20;55.40
35497;DHT22;21609;49.298;6.844;2022-09-21T18:14:57;21.10;55.30
35497;DHT22;21609;49.298;6.844;2022-09-21T18:20:39;21.10;55.30
35497;DHT22;21609;49.298;6.844;2022-09-21T18:23:13;21.10;55.30
35497;DHT22;21609;49.298;6.844;2022-09-21T18:25:43;21.10;55.40
35497;DHT22;21609;49.298;6.844;2022-09-21T18:28:41;21.10;55.50
35497;DHT22;21609;49.298;6.844;2022-09-21T18:36:35;21.10;55.50
35497;DHT22;21609;49.298;6.844;2022-09-21T18:47:12;21.10;55.60
35497;DHT22;21609;49.298;6.844;2022-09-21T18:49:57;21.10;55.60
35497;DHT22;21609;49.298;6.844;2022-09-21T18:55:25;21.10;55.60
35497;DHT22;21609;49.298;6.844;2022-09-21T18:57:53;21.00;55.60
35497;DHT22;21609;49.298;6.844;2022-09-21T19:00:19;21.00;55.60
35497;DHT22;21609;49.298;6.844;2022-09-21T19:02:45;21.00;55.50
35497;DHT22;21609;49.298;6.844;2022-09-21T19:05:12;21.00;55.50